sensor_id;sensor_type;location;lat;lon;timestamp;P1;durP1;ratioP1;P2;durP2;ratioP2
47009;SDS011;59230;54.164;-3.124;2022-09-09T00:01:21;7.78;;;2.90;;
47009;SDS011;59230;54.164;-3.124;2022-09-09T00:07:19;4.82;;;2.35;;
47009;SDS011;59230;54.164;-3.124;2022-09-09T00:15:52;5.85;;;2.35;;
47009;SDS011;59230;54.164;-3.124;2022-09-09T00:21:38;3.22;;;2.40;;
47009;SDS011;59230;54.164;-3.124;2022-09-09T00:24:10;8.50;;;2.22;;
47009;SDS011;59230;54.164;-3.124;2022-09-09T00:27:01;7.60;;;2.08;;
47009;SDS011;59230;54.164;-3.124;2022-09-09T00:32:16;5.35;;;2.20;;
47009;SDS011;59230;54.164;-3.124;2022-09-09T00:37:46;6.20;;;2.28;;
47009;SDS011;59230;54.164;-3.124;2022-09-09T00:40:32;2.40;;;2.10;;
47009;SDS011;59230;54.164;-3.124;2022-09-09T00:57:29;5.03;;;3.10;;
47009;SDS011;59230;54.164;-3.124;2022-09-09T01:02:34;5.25;;;2.92;;
47009;SDS011;59230;54.164;-3.124;2022-09-09T01:05:51;9.43;;;2.95;;
47009;SDS011;59230;54.164;-3.124;2022-09-09T01:11:28;8.90;;;3.30;;
47009;SDS011;59230;54.164;-3.124;2022-09-09T01:14:10;6.03;;;3.03;;
47009;SDS011;59230;54.164;-3.124;2022-09-09T01:17:03;10.43;;;3.17;;
47009;SDS011;59230;54.164;-3.124;2022-09-09T01:27:39;4.43;;;3.00;;
47009;SDS011;59230;54.164;-3.124;2022-09-09T01:30:11;7.93;;;2.60;;
47009;SDS011;59230;54.164;-3.124;2022-09-09T01:32:45;6.43;;;2.72;;
47009;SDS011;59230;54.164;-3.124;2022-09-09T01:38:05;9.63;;;2.97;;
47009;SDS011;59230;54.164;-3.124;2022-09-09T01:40:33;9.63;;;2.70;;
47009;SDS011;59230;54.164;-3.124;2022-09-09T01:43:00;6.30;;;2.60;;
47009;SDS011;59230;54.164;-3.124;2022-09-09T01:45:27;7.50;;;2.83;;
47009;SDS011;59230;54.164;-3.124;2022-09-09T01:47:52;7.53;;;2.42;;
47009;SDS011;59230;54.164;-3.124;2022-09-09T01:50:20;5.93;;;2.55;;
47009;SDS011;59230;54.164;-3.124;2022-09-09T01:52:47;5.28;;;2.67;;
47009;SDS011;59230;54.164;-3.124;2022-09-09T01:55:17;5.82;;;2.78;;
47009;SDS011;59230;54.164;-3.124;2022-09-09T02:00:52;6.35;;;2.80;;
47009;SDS011;59230;54.164;-3.124;2022-09-09T02:03:27;5.88;;;2.80;;
47009;SDS011;59230;54.164;-3.124;2022-09-09T02:08:48;5.28;;;2.83;;
47009;SDS011;59230;54.164;-3.124;2022-09-09T02:11:16;7.40;;;3.10;;
47009;SDS011;59230;54.164;-3.124;2022-09-09T02:13:45;8.57;;;3.03;;
47009;SDS011;59230;54.164;-3.124;2022-09-09T02:16:19;9.65;;;3.60;;
47009;SDS011;59230;54.164;-3.124;2022-09-09T02:21:33;5.45;;;3.13;;
47009;SDS011;59230;54.164;-3.124;2022-09-09T02:24:06;5.25;;;3.10;;
47009;SDS011;59230;54.164;-3.124;2022-09-09T02:26:40;5.05;;;3.40;;
47009;SDS011;59230;54.164;-3.124;2022-09-09T02:29:09;6.00;;;3.70;;
47009;SDS011;59230;54.164;-3.124;2022-09-09T02:31:47;6.88;;;3.53;;
47009;SDS011;59230;54.164;-3.124;2022-09-09T02:34:13;6.20;;;3.20;;
47009;SDS011;59230;54.164;-3.124;2022-09-09T02:36:42;6.68;;;3.80;;
47009;SDS011;59230;54.164;-3.124;2022-09-09T02:39:11;7.60;;;3.80;;
47009;SDS011;59230;54.164;-3.124;2022-09-09T02:41:37;7.28;;;3.17;;
47009;SDS011;59230;54.164;-3.124;2022-09-09T02:44:05;6.60;;;3.05;;
47009;SDS011;59230;54.164;-3.124;2022-09-09T02:49:36;5.47;;;3.45;;
47009;SDS011;59230;54.164;-3.124;2022-09-09T02:52:08;6.18;;;3.80;;
47009;SDS011;59230;54.164;-3.124;2022-09-09T02:54:41;5.72;;;3.65;;
47009;SDS011;59230;54.164;-3.124;2022-09-09T02:57:10;6.28;;;3.78;;
47009;SDS011;59230;54.164;-3.124;2022-09-09T02:59:38;4.53;;;3.08;;
47009;SDS011;59230;54.164;-3.124;2022-09-09T03:02:04;5.93;;;3.20;;
47009;SDS011;59230;54.164;-3.124;2022-09-09T03:04:32;9.88;;;3.78;;
47009;SDS011;59230;54.164;-3.124;2022-09-09T03:06:58;8.27;;;3.83;;
47009;SDS011;59230;54.164;-3.124;2022-09-09T03:09:27;12.93;;;5.18;;
47009;SDS011;59230;54.164;-3.124;2022-09-09T03:11:54;6.57;;;3.88;;
47009;SDS011;59230;54.164;-3.124;2022-09-09T03:14:21;8.40;;;4.30;;
47009;SDS011;59230;54.164;-3.124;2022-09-09T03:16:51;8.23;;;4.10;;
47009;SDS011;59230;54.164;-3.124;2022-09-09T03:19:19;10.10;;;4.47;;
47009;SDS011;59230;54.164;-3.124;2022-09-09T03:21:46;8.23;;;4.50;;
47009;SDS011;59230;54.164;-3.124;2022-09-09T03:24:13;10.40;;;4.68;;
47009;SDS011;59230;54.164;-3.124;2022-09-09T03:26:40;5.57;;;4.35;;
47009;SDS011;59230;54.164;-3.124;2022-09-09T03:29:08;6.35;;;4.07;;
47009;SDS011;59230;54.164;-3.124;2022-09-09T03:31:38;9.10;;;4.20;;
47009;SDS011;59230;54.164;-3.124;2022-09-09T03:34:05;6.70;;;4.40;;
47009;SDS011;59230;54.164;-3.124;2022-09-09T03:36:33;9.73;;;4.40;;
47009;SDS011;59230;54.164;-3.124;2022-09-09T03:38:59;6.47;;;4.30;;
47009;SDS011;59230;54.164;-3.124;2022-09-09T03:41:27;6.25;;;4.05;;
47009;SDS011;59230;54.164;-3.124;2022-09-09T03:43:53;6.75;;;3.97;;
47009;SDS011;59230;54.164;-3.124;2022-09-09T03:46:25;5.50;;;3.90;;
47009;SDS011;59230;54.164;-3.124;2022-09-09T03:48:51;10.73;;;4.40;;
47009;SDS011;59230;54.164;-3.124;2022-09-09T03:51:21;6.75;;;3.60;;
47009;SDS011;59230;54.164;-3.124;2022-09-09T03:53:48;7.03;;;3.13;;
47009;SDS011;59230;54.164;-3.124;2022-09-09T03:56:15;4.95;;;3.33;;
47009;SDS011;59230;54.164;-3.124;2022-09-09T03:58:42;4.53;;;2.92;;
47009;SDS011;59230;54.164;-3.124;2022-09-09T04:01:09;4.75;;;3.40;;
47009;SDS011;59230;54.164;-3.124;2022-09-09T04:03:35;5.38;;;3.40;;
47009;SDS011;59230;54.164;-3.124;2022-09-09T04:06:03;5.50;;;3.45;;
47009;SDS011;59230;54.164;-3.124;2022-09-09T04:08:32;5.13;;;3.63;;
47009;SDS011;59230;54.164;-3.124;2022-09-09T04:10:59;9.38;;;4.10;;
47009;SDS011;59230;54.164;-3.124;2022-09-09T04:13:29;8.30;;;4.38;;
47009;SDS011;59230;54.164;-3.124;2022-09-09T04:15:56;7.78;;;4.55;;
47009;SDS011;59230;54.164;-3.124;2022-09-09T04:18:24;11.25;;;5.18;;
47009;SDS011;59230;54.164;-3.124;2022-09-09T04:20:54;6.65;;;5.28;;
47009;SDS011;59230;54.164;-3.124;2022-09-09T04:23:26;12.23;;;6.72;;
47009;SDS011;59230;54.164;-3.124;2022-09-09T04:25:54;15.55;;;6.93;;
47009;SDS011;59230;54.164;-3.124;2022-09-09T04:28:23;12.02;;;6.65;;
47009;SDS011;59230;54.164;-3.124;2022-09-09T04:30:57;10.98;;;7.10;;
47009;SDS011;59230;54.164;-3.124;2022-09-09T04:33:30;18.25;;;7.50;;
47009;SDS011;59230;54.164;-3.124;2022-09-09T04:35:57;12.05;;;7.65;;
47009;SDS011;59230;54.164;-3.124;2022-09-09T04:38:24;11.55;;;8.27;;
47009;SDS011;59230;54.164;-3.124;2022-09-09T04:40:52;15.55;;;8.05;;
47009;SDS011;59230;54.164;-3.124;2022-09-09T04:43:19;14.10;;;7.70;;
47009;SDS011;59230;54.164;-3.124;2022-09-09T04:45:50;14.13;;;9.07;;
47009;SDS011;59230;54.164;-3.124;2022-09-09T04:48:17;16.88;;;8.30;;
47009;SDS011;59230;54.164;-3.124;2022-09-09T04:50:53;13.40;;;8.95;;
47009;SDS011;59230;54.164;-3.124;2022-09-09T04:53:19;17.55;;;9.07;;
47009;SDS011;59230;54.164;-3.124;2022-09-09T04:55:48;14.02;;;9.85;;
47009;SDS011;59230;54.164;-3.124;2022-09-09T04:58:16;14.10;;;10.23;;
47009;SDS011;59230;54.164;-3.124;2022-09-09T05:00:45;14.80;;;10.35;;
47009;SDS011;59230;54.164;-3.124;2022-09-09T05:03:12;15.10;;;9.85;;
47009;SDS011;59230;54.164;-3.124;2022-09-09T05:05:39;23.35;;;11.18;;
47009;SDS011;59230;54.164;-3.124;2022-09-09T05:08:06;19.15;;;10.85;;
47009;SDS011;59230;54.164;-3.124;2022-09-09T05:10:34;16.10;;;9.05;;
47009;SDS011;59230;54.164;-3.124;2022-09-09T05:13:02;14.38;;;10.15;;
47009;SDS011;59230;54.164;-3.124;2022-09-09T05:15:31;17.65;;;11.02;;
47009;SDS011;59230;54.164;-3.124;2022-09-09T05:17:58;17.05;;;10.23;;
47009;SDS011;59230;54.164;-3.124;2022-09-09T05:20:25;17.60;;;10.57;;
47009;SDS011;59230;54.164;-3.124;2022-09-09T05:22:55;18.60;;;11.15;;
47009;SDS011;59230;54.164;-3.124;2022-09-09T05:25:23;19.90;;;11.35;;
47009;SDS011;59230;54.164;-3.124;2022-09-09T05:27:51;15.45;;;10.43;;
47009;SDS011;59230;54.164;-3.124;2022-09-09T05:30:20;18.60;;;10.40;;
47009;SDS011;59230;54.164;-3.124;2022-09-09T05:32:47;19.23;;;11.02;;
47009;SDS011;59230;54.164;-3.124;2022-09-09T05:35:17;20.98;;;10.68;;
47009;SDS011;59230;54.164;-3.124;2022-09-09T05:37:45;14.25;;;10.85;;
47009;SDS011;59230;54.164;-3.124;2022-09-09T05:40:11;18.60;;;11.25;;
47009;SDS011;59230;54.164;-3.124;2022-09-09T05:42:39;16.63;;;10.23;;
47009;SDS011;59230;54.164;-3.124;2022-09-09T05:45:07;16.13;;;11.15;;
47009;SDS011;59230;54.164;-3.124;2022-09-09T05:47:34;14.25;;;10.27;;
47009;SDS011;59230;54.164;-3.124;2022-09-09T05:50:13;13.38;;;10.32;;
47009;SDS011;59230;54.164;-3.124;2022-09-09T05:52:43;15.85;;;10.55;;
47009;SDS011;59230;54.164;-3.124;2022-09-09T05:55:10;16.98;;;11.38;;
47009;SDS011;59230;54.164;-3.124;2022-09-09T05:57:35;21.67;;;10.52;;
47009;SDS011;59230;54.164;-3.124;2022-09-09T06:00:03;14.73;;;10.52;;
47009;SDS011;59230;54.164;-3.124;2022-09-09T06:05:14;13.50;;;9.57;;
47009;SDS011;59230;54.164;-3.124;2022-09-09T06:07:43;17.95;;;9.82;;
47009;SDS011;59230;54.164;-3.124;2022-09-09T06:10:11;16.27;;;8.25;;
47009;SDS011;59230;54.164;-3.124;2022-09-09T06:12:38;14.68;;;8.95;;
47009;SDS011;59230;54.164;-3.124;2022-09-09T06:15:07;14.18;;;9.35;;
47009;SDS011;59230;54.164;-3.124;2022-09-09T06:17:34;15.10;;;9.15;;
47009;SDS011;59230;54.164;-3.124;2022-09-09T06:19:59;20.55;;;11.35;;
47009;SDS011;59230;54.164;-3.124;2022-09-09T06:22:25;14.32;;;10.02;;
47009;SDS011;59230;54.164;-3.124;2022-09-09T06:24:52;15.40;;;10.57;;
47009;SDS011;59230;54.164;-3.124;2022-09-09T06:27:19;17.02;;;10.77;;
47009;SDS011;59230;54.164;-3.124;2022-09-09T06:29:46;17.08;;;10.93;;
47009;SDS011;59230;54.164;-3.124;2022-09-09T06:32:14;20.65;;;12.00;;
47009;SDS011;59230;54.164;-3.124;2022-09-09T06:34:40;18.48;;;9.02;;
47009;SDS011;59230;54.164;-3.124;2022-09-09T06:37:08;14.85;;;8.73;;
47009;SDS011;59230;54.164;-3.124;2022-09-09T06:39:36;18.77;;;10.27;;
47009;SDS011;59230;54.164;-3.124;2022-09-09T06:42:03;16.77;;;10.95;;
47009;SDS011;59230;54.164;-3.124;2022-09-09T06:44:31;15.07;;;10.63;;
47009;SDS011;59230;54.164;-3.124;2022-09-09T06:47:00;21.75;;;10.18;;
47009;SDS011;59230;54.164;-3.124;2022-09-09T06:49:27;14.18;;;10.02;;
47009;SDS011;59230;54.164;-3.124;2022-09-09T06:51:54;12.88;;;8.82;;
47009;SDS011;59230;54.164;-3.124;2022-09-09T06:54:21;14.55;;;9.50;;
47009;SDS011;59230;54.164;-3.124;2022-09-09T06:56:49;16.70;;;9.13;;
47009;SDS011;59230;54.164;-3.124;2022-09-09T06:59:15;18.92;;;9.43;;
47009;SDS011;59230;54.164;-3.124;2022-09-09T07:01:42;11.77;;;9.40;;
47009;SDS011;59230;54.164;-3.124;2022-09-09T07:06:45;16.55;;;10.20;;
47009;SDS011;59230;54.164;-3.124;2022-09-09T07:09:14;15.77;;;8.60;;
47009;SDS011;59230;54.164;-3.124;2022-09-09T07:11:46;13.93;;;9.45;;
47009;SDS011;59230;54.164;-3.124;2022-09-09T07:14:13;16.70;;;10.10;;
47009;SDS011;59230;54.164;-3.124;2022-09-09T07:16:40;16.55;;;9.70;;
47009;SDS011;59230;54.164;-3.124;2022-09-09T07:19:09;13.35;;;8.45;;
47009;SDS011;59230;54.164;-3.124;2022-09-09T07:21:36;15.60;;;9.07;;
47009;SDS011;59230;54.164;-3.124;2022-09-09T07:24:07;18.42;;;9.75;;
47009;SDS011;59230;54.164;-3.124;2022-09-09T07:26:36;13.18;;;8.48;;
47009;SDS011;59230;54.164;-3.124;2022-09-09T07:29:04;13.57;;;8.50;;
47009;SDS011;59230;54.164;-3.124;2022-09-09T07:31:35;12.30;;;8.02;;
47009;SDS011;59230;54.164;-3.124;2022-09-09T07:34:02;10.80;;;5.45;;
47009;SDS011;59230;54.164;-3.124;2022-09-09T07:36:33;9.40;;;4.50;;
47009;SDS011;59230;54.164;-3.124;2022-09-09T07:39:04;10.93;;;5.95;;
47009;SDS011;59230;54.164;-3.124;2022-09-09T07:41:36;11.05;;;4.80;;
47009;SDS011;59230;54.164;-3.124;2022-09-09T07:44:05;12.00;;;5.70;;
47009;SDS011;59230;54.164;-3.124;2022-09-09T07:46:37;10.23;;;5.45;;
47009;SDS011;59230;54.164;-3.124;2022-09-09T07:49:08;14.32;;;5.97;;
47009;SDS011;59230;54.164;-3.124;2022-09-09T07:51:35;11.23;;;5.05;;
47009;SDS011;59230;54.164;-3.124;2022-09-09T07:54:06;10.25;;;5.32;;
47009;SDS011;59230;54.164;-3.124;2022-09-09T07:56:37;10.50;;;6.15;;
47009;SDS011;59230;54.164;-3.124;2022-09-09T07:59:04;13.02;;;6.45;;
47009;SDS011;59230;54.164;-3.124;2022-09-09T08:01:36;10.40;;;6.28;;
47009;SDS011;59230;54.164;-3.124;2022-09-09T08:04:05;8.90;;;5.82;;
47009;SDS011;59230;54.164;-3.124;2022-09-09T08:09:45;10.55;;;5.80;;
47009;SDS011;59230;54.164;-3.124;2022-09-09T08:12:11;16.08;;;5.93;;
47009;SDS011;59230;54.164;-3.124;2022-09-09T08:14:38;7.63;;;4.70;;
47009;SDS011;59230;54.164;-3.124;2022-09-09T08:17:06;9.40;;;4.60;;
47009;SDS011;59230;54.164;-3.124;2022-09-09T08:19:34;10.68;;;3.78;;
47009;SDS011;59230;54.164;-3.124;2022-09-09T08:22:03;4.90;;;3.45;;
47009;SDS011;59230;54.164;-3.124;2022-09-09T08:24:30;6.97;;;4.10;;
47009;SDS011;59230;54.164;-3.124;2022-09-09T08:26:58;9.07;;;3.13;;
47009;SDS011;59230;54.164;-3.124;2022-09-09T08:29:25;6.88;;;2.63;;
47009;SDS011;59230;54.164;-3.124;2022-09-09T08:31:52;8.35;;;3.22;;
47009;SDS011;59230;54.164;-3.124;2022-09-09T08:34:22;7.18;;;3.00;;
47009;SDS011;59230;54.164;-3.124;2022-09-09T08:36:55;5.25;;;3.10;;
47009;SDS011;59230;54.164;-3.124;2022-09-09T08:39:21;9.32;;;3.38;;
47009;SDS011;59230;54.164;-3.124;2022-09-09T08:50:38;9.98;;;3.60;;
47009;SDS011;59230;54.164;-3.124;2022-09-09T09:00:57;3.83;;;1.90;;
47009;SDS011;59230;54.164;-3.124;2022-09-09T09:11:46;3.35;;;1.30;;
47009;SDS011;59230;54.164;-3.124;2022-09-09T09:14:21;4.47;;;1.15;;
47009;SDS011;59230;54.164;-3.124;2022-09-09T09:19:24;5.45;;;1.15;;
47009;SDS011;59230;54.164;-3.124;2022-09-09T09:30:25;4.50;;;1.38;;
47009;SDS011;59230;54.164;-3.124;2022-09-09T09:35:34;5.00;;;1.20;;
47009;SDS011;59230;54.164;-3.124;2022-09-09T09:38:10;5.40;;;1.00;;
47009;SDS011;59230;54.164;-3.124;2022-09-09T09:40:56;2.63;;;1.10;;
47009;SDS011;59230;54.164;-3.124;2022-09-09T09:43:27;4.68;;;0.98;;
47009;SDS011;59230;54.164;-3.124;2022-09-09T09:45:59;2.42;;;1.05;;
47009;SDS011;59230;54.164;-3.124;2022-09-09T09:48:26;3.28;;;0.95;;
47009;SDS011;59230;54.164;-3.124;2022-09-09T09:53:48;2.35;;;0.82;;
47009;SDS011;59230;54.164;-3.124;2022-09-09T09:56:14;6.38;;;0.90;;
47009;SDS011;59230;54.164;-3.124;2022-09-09T10:01:22;4.75;;;0.90;;
47009;SDS011;59230;54.164;-3.124;2022-09-09T10:04:21;4.25;;;1.33;;
47009;SDS011;59230;54.164;-3.124;2022-09-09T10:09:49;3.67;;;0.90;;
47009;SDS011;59230;54.164;-3.124;2022-09-09T10:15:57;5.20;;;1.10;;
47009;SDS011;59230;54.164;-3.124;2022-09-09T10:30:47;4.28;;;1.00;;
47009;SDS011;59230;54.164;-3.124;2022-09-09T10:36:34;5.63;;;0.95;;
47009;SDS011;59230;54.164;-3.124;2022-09-09T10:42:14;5.95;;;1.13;;
47009;SDS011;59230;54.164;-3.124;2022-09-09T10:44:53;4.22;;;0.90;;
47009;SDS011;59230;54.164;-3.124;2022-09-09T10:56:08;6.43;;;0.98;;
47009;SDS011;59230;54.164;-3.124;2022-09-09T10:59:10;4.00;;;0.88;;
47009;SDS011;59230;54.164;-3.124;2022-09-09T11:04:57;3.83;;;0.80;;
47009;SDS011;59230;54.164;-3.124;2022-09-09T11:07:43;2.00;;;0.60;;
47009;SDS011;59230;54.164;-3.124;2022-09-09T11:10:18;2.58;;;0.80;;
47009;SDS011;59230;54.164;-3.124;2022-09-09T11:12:48;3.20;;;1.00;;
47009;SDS011;59230;54.164;-3.124;2022-09-09T11:15:20;2.53;;;0.70;;
47009;SDS011;59230;54.164;-3.124;2022-09-09T11:18:13;5.90;;;0.93;;
47009;SDS011;59230;54.164;-3.124;2022-09-09T11:21:21;3.05;;;0.90;;
47009;SDS011;59230;54.164;-3.124;2022-09-09T11:23:53;2.90;;;0.70;;
47009;SDS011;59230;54.164;-3.124;2022-09-09T11:27:05;2.58;;;1.20;;
47009;SDS011;59230;54.164;-3.124;2022-09-09T11:30:19;6.47;;;2.10;;
47009;SDS011;59230;54.164;-3.124;2022-09-09T11:33:17;4.40;;;2.60;;
47009;SDS011;59230;54.164;-3.124;2022-09-09T11:41:38;5.38;;;2.17;;
47009;SDS011;59230;54.164;-3.124;2022-09-09T11:44:11;8.75;;;3.40;;
47009;SDS011;59230;54.164;-3.124;2022-09-09T11:46:40;9.57;;;4.30;;
47009;SDS011;59230;54.164;-3.124;2022-09-09T11:49:21;14.20;;;3.85;;
47009;SDS011;59230;54.164;-3.124;2022-09-09T11:55:28;6.60;;;1.98;;
47009;SDS011;59230;54.164;-3.124;2022-09-09T11:58:04;7.15;;;1.90;;
47009;SDS011;59230;54.164;-3.124;2022-09-09T12:00:42;5.25;;;1.95;;
47009;SDS011;59230;54.164;-3.124;2022-09-09T12:09:09;7.90;;;1.65;;
47009;SDS011;59230;54.164;-3.124;2022-09-09T12:11:45;9.23;;;1.90;;
47009;SDS011;59230;54.164;-3.124;2022-09-09T12:17:31;4.88;;;1.13;;
47009;SDS011;59230;54.164;-3.124;2022-09-09T12:20:51;6.07;;;1.20;;
47009;SDS011;59230;54.164;-3.124;2022-09-09T12:34:55;4.70;;;1.45;;
47009;SDS011;59230;54.164;-3.124;2022-09-09T12:37:42;4.30;;;1.48;;
47009;SDS011;59230;54.164;-3.124;2022-09-09T12:40:23;5.47;;;1.30;;
47009;SDS011;59230;54.164;-3.124;2022-09-09T12:42:51;4.72;;;1.33;;
47009;SDS011;59230;54.164;-3.124;2022-09-09T12:45:21;2.95;;;1.10;;
47009;SDS011;59230;54.164;-3.124;2022-09-09T12:48:10;6.25;;;1.40;;
47009;SDS011;59230;54.164;-3.124;2022-09-09T12:50:58;4.90;;;1.40;;
47009;SDS011;59230;54.164;-3.124;2022-09-09T12:53:40;5.05;;;1.48;;
47009;SDS011;59230;54.164;-3.124;2022-09-09T12:56:06;8.48;;;1.15;;
47009;SDS011;59230;54.164;-3.124;2022-09-09T12:58:36;1.52;;;0.63;;
47009;SDS011;59230;54.164;-3.124;2022-09-09T13:01:03;1.35;;;0.50;;
47009;SDS011;59230;54.164;-3.124;2022-09-09T13:03:41;2.65;;;0.70;;
47009;SDS011;59230;54.164;-3.124;2022-09-09T13:06:16;4.75;;;0.60;;
47009;SDS011;59230;54.164;-3.124;2022-09-09T13:08:47;1.75;;;0.70;;
47009;SDS011;59230;54.164;-3.124;2022-09-09T13:11:17;0.93;;;0.52;;
47009;SDS011;59230;54.164;-3.124;2022-09-09T13:13:52;3.75;;;0.30;;
47009;SDS011;59230;54.164;-3.124;2022-09-09T13:16:27;2.08;;;0.40;;
47009;SDS011;59230;54.164;-3.124;2022-09-09T13:19:10;0.40;;;0.20;;
47009;SDS011;59230;54.164;-3.124;2022-09-09T13:21:44;0.63;;;0.20;;
47009;SDS011;59230;54.164;-3.124;2022-09-09T13:27:02;0.22;;;0.20;;
47009;SDS011;59230;54.164;-3.124;2022-09-09T13:29:31;1.02;;;0.30;;
47009;SDS011;59230;54.164;-3.124;2022-09-09T13:32:18;0.47;;;0.20;;
47009;SDS011;59230;54.164;-3.124;2022-09-09T13:40:04;0.40;;;0.25;;
47009;SDS011;59230;54.164;-3.124;2022-09-09T13:42:40;0.47;;;0.30;;
47009;SDS011;59230;54.164;-3.124;2022-09-09T13:45:19;1.13;;;0.38;;
47009;SDS011;59230;54.164;-3.124;2022-09-09T13:47:49;0.65;;;0.45;;
47009;SDS011;59230;54.164;-3.124;2022-09-09T13:50:25;0.77;;;0.40;;
47009;SDS011;59230;54.164;-3.124;2022-09-09T13:52:53;0.90;;;0.30;;
47009;SDS011;59230;54.164;-3.124;2022-09-09T13:55:23;3.47;;;0.63;;
47009;SDS011;59230;54.164;-3.124;2022-09-09T13:57:55;1.38;;;0.45;;
47009;SDS011;59230;54.164;-3.124;2022-09-09T14:00:29;0.55;;;0.30;;
47009;SDS011;59230;54.164;-3.124;2022-09-09T14:02:59;1.38;;;0.40;;
47009;SDS011;59230;54.164;-3.124;2022-09-09T14:05:31;1.45;;;0.50;;
47009;SDS011;59230;54.164;-3.124;2022-09-09T14:07:57;2.53;;;0.63;;
47009;SDS011;59230;54.164;-3.124;2022-09-09T14:10:32;2.88;;;0.73;;
47009;SDS011;59230;54.164;-3.124;2022-09-09T14:13:02;2.75;;;0.60;;
47009;SDS011;59230;54.164;-3.124;2022-09-09T14:15:28;1.70;;;0.45;;
47009;SDS011;59230;54.164;-3.124;2022-09-09T14:17:54;2.20;;;0.50;;
47009;SDS011;59230;54.164;-3.124;2022-09-09T14:20:20;2.58;;;0.52;;
47009;SDS011;59230;54.164;-3.124;2022-09-09T14:22:49;1.40;;;0.52;;
47009;SDS011;59230;54.164;-3.124;2022-09-09T14:25:16;1.20;;;0.40;;
47009;SDS011;59230;54.164;-3.124;2022-09-09T14:27:43;1.55;;;0.45;;
47009;SDS011;59230;54.164;-3.124;2022-09-09T14:30:13;1.05;;;0.40;;
47009;SDS011;59230;54.164;-3.124;2022-09-09T14:32:40;3.00;;;0.55;;
47009;SDS011;59230;54.164;-3.124;2022-09-09T14:35:07;3.00;;;0.50;;
47009;SDS011;59230;54.164;-3.124;2022-09-09T14:37:34;0.93;;;0.30;;
47009;SDS011;59230;54.164;-3.124;2022-09-09T14:40:01;1.20;;;0.32;;
47009;SDS011;59230;54.164;-3.124;2022-09-09T14:42:30;3.13;;;0.60;;
47009;SDS011;59230;54.164;-3.124;2022-09-09T14:44:56;0.93;;;0.40;;
47009;SDS011;59230;54.164;-3.124;2022-09-09T14:47:24;1.77;;;0.60;;
47009;SDS011;59230;54.164;-3.124;2022-09-09T14:49:51;1.20;;;0.65;;
47009;SDS011;59230;54.164;-3.124;2022-09-09T14:52:17;1.83;;;0.55;;
47009;SDS011;59230;54.164;-3.124;2022-09-09T14:54:44;1.15;;;0.40;;
47009;SDS011;59230;54.164;-3.124;2022-09-09T14:57:16;1.17;;;0.43;;
47009;SDS011;59230;54.164;-3.124;2022-09-09T14:59:43;4.20;;;0.57;;
47009;SDS011;59230;54.164;-3.124;2022-09-09T15:02:09;1.98;;;0.55;;
47009;SDS011;59230;54.164;-3.124;2022-09-09T15:04:42;2.90;;;0.60;;
47009;SDS011;59230;54.164;-3.124;2022-09-09T15:07:10;1.08;;;0.45;;
47009;SDS011;59230;54.164;-3.124;2022-09-09T15:09:36;1.23;;;0.50;;
47009;SDS011;59230;54.164;-3.124;2022-09-09T15:12:03;1.27;;;0.50;;
47009;SDS011;59230;54.164;-3.124;2022-09-09T15:14:30;3.28;;;0.60;;
47009;SDS011;59230;54.164;-3.124;2022-09-09T15:16:56;1.58;;;0.40;;
47009;SDS011;59230;54.164;-3.124;2022-09-09T15:19:22;1.33;;;0.45;;
47009;SDS011;59230;54.164;-3.124;2022-09-09T15:21:49;0.80;;;0.40;;
47009;SDS011;59230;54.164;-3.124;2022-09-09T15:24:17;1.80;;;0.40;;
47009;SDS011;59230;54.164;-3.124;2022-09-09T15:26:47;2.20;;;0.45;;
47009;SDS011;59230;54.164;-3.124;2022-09-09T15:29:15;2.38;;;0.40;;
47009;SDS011;59230;54.164;-3.124;2022-09-09T15:31:42;0.45;;;0.25;;
47009;SDS011;59230;54.164;-3.124;2022-09-09T15:34:10;0.65;;;0.30;;
47009;SDS011;59230;54.164;-3.124;2022-09-09T15:36:41;0.43;;;0.30;;
47009;SDS011;59230;54.164;-3.124;2022-09-09T15:39:15;0.55;;;0.20;;
47009;SDS011;59230;54.164;-3.124;2022-09-09T15:41:42;0.82;;;0.30;;
47009;SDS011;59230;54.164;-3.124;2022-09-09T15:44:14;0.50;;;0.50;;
47009;SDS011;59230;54.164;-3.124;2022-09-09T15:46:44;0.30;;;0.30;;
47009;SDS011;59230;54.164;-3.124;2022-09-09T15:51:43;3.35;;;0.45;;
47009;SDS011;59230;54.164;-3.124;2022-09-09T15:54:16;0.65;;;0.30;;
47009;SDS011;59230;54.164;-3.124;2022-09-09T15:56:43;2.08;;;0.40;;
47009;SDS011;59230;54.164;-3.124;2022-09-09T15:59:10;1.58;;;0.50;;
47009;SDS011;59230;54.164;-3.124;2022-09-09T16:01:36;2.92;;;0.50;;
47009;SDS011;59230;54.164;-3.124;2022-09-09T16:04:03;1.35;;;0.40;;
47009;SDS011;59230;54.164;-3.124;2022-09-09T16:06:29;3.30;;;0.50;;
47009;SDS011;59230;54.164;-3.124;2022-09-09T16:08:55;2.38;;;0.52;;
47009;SDS011;59230;54.164;-3.124;2022-09-09T16:11:23;2.58;;;0.55;;
47009;SDS011;59230;54.164;-3.124;2022-09-09T16:13:50;3.42;;;0.60;;
47009;SDS011;59230;54.164;-3.124;2022-09-09T16:16:18;1.60;;;0.73;;
47009;SDS011;59230;54.164;-3.124;2022-09-09T16:18:47;4.40;;;0.75;;
47009;SDS011;59230;54.164;-3.124;2022-09-09T16:21:18;2.45;;;0.80;;
47009;SDS011;59230;54.164;-3.124;2022-09-09T16:23:49;2.25;;;0.95;;
47009;SDS011;59230;54.164;-3.124;2022-09-09T16:26:15;3.50;;;0.65;;
47009;SDS011;59230;54.164;-3.124;2022-09-09T16:28:42;2.88;;;0.70;;
47009;SDS011;59230;54.164;-3.124;2022-09-09T16:31:09;2.92;;;0.70;;
47009;SDS011;59230;54.164;-3.124;2022-09-09T16:33:36;1.48;;;0.60;;
47009;SDS011;59230;54.164;-3.124;2022-09-09T16:36:09;2.38;;;0.75;;
47009;SDS011;59230;54.164;-3.124;2022-09-09T16:38:39;1.80;;;0.60;;
47009;SDS011;59230;54.164;-3.124;2022-09-09T16:41:08;3.65;;;0.43;;
47009;SDS011;59230;54.164;-3.124;2022-09-09T16:43:38;4.57;;;0.65;;
47009;SDS011;59230;54.164;-3.124;2022-09-09T16:49:30;3.25;;;0.70;;
47009;SDS011;59230;54.164;-3.124;2022-09-09T16:52:29;2.78;;;0.55;;
47009;SDS011;59230;54.164;-3.124;2022-09-09T16:55:15;5.38;;;0.52;;
47009;SDS011;59230;54.164;-3.124;2022-09-09T17:00:49;1.90;;;0.60;;
47009;SDS011;59230;54.164;-3.124;2022-09-09T17:03:15;1.33;;;0.50;;
47009;SDS011;59230;54.164;-3.124;2022-09-09T17:05:41;1.05;;;0.50;;
47009;SDS011;59230;54.164;-3.124;2022-09-09T17:08:07;2.25;;;0.60;;
47009;SDS011;59230;54.164;-3.124;2022-09-09T17:10:35;1.83;;;0.50;;
47009;SDS011;59230;54.164;-3.124;2022-09-09T17:13:05;2.85;;;0.50;;
47009;SDS011;59230;54.164;-3.124;2022-09-09T17:15:31;1.08;;;0.50;;
47009;SDS011;59230;54.164;-3.124;2022-09-09T17:17:56;2.28;;;0.75;;
47009;SDS011;59230;54.164;-3.124;2022-09-09T17:20:34;2.78;;;0.60;;
47009;SDS011;59230;54.164;-3.124;2022-09-09T17:23:00;5.18;;;0.60;;
47009;SDS011;59230;54.164;-3.124;2022-09-09T17:27:59;1.10;;;0.52;;
47009;SDS011;59230;54.164;-3.124;2022-09-09T17:30:30;2.28;;;0.70;;
47009;SDS011;59230;54.164;-3.124;2022-09-09T17:32:59;2.67;;;0.70;;
47009;SDS011;59230;54.164;-3.124;2022-09-09T17:35:25;1.45;;;0.50;;
47009;SDS011;59230;54.164;-3.124;2022-09-09T17:37:53;0.95;;;0.60;;
47009;SDS011;59230;54.164;-3.124;2022-09-09T17:40:19;2.78;;;0.60;;
47009;SDS011;59230;54.164;-3.124;2022-09-09T17:42:45;1.63;;;0.60;;
47009;SDS011;59230;54.164;-3.124;2022-09-09T17:45:12;2.90;;;0.50;;
47009;SDS011;59230;54.164;-3.124;2022-09-09T17:47:37;0.90;;;0.60;;
47009;SDS011;59230;54.164;-3.124;2022-09-09T17:50:03;4.63;;;0.95;;
47009;SDS011;59230;54.164;-3.124;2022-09-09T17:52:29;3.25;;;0.80;;
47009;SDS011;59230;54.164;-3.124;2022-09-09T17:54:55;4.63;;;0.98;;
47009;SDS011;59230;54.164;-3.124;2022-09-09T17:57:21;1.73;;;0.50;;
47009;SDS011;59230;54.164;-3.124;2022-09-09T17:59:47;3.95;;;0.75;;
47009;SDS011;59230;54.164;-3.124;2022-09-09T18:02:12;3.10;;;0.70;;
47009;SDS011;59230;54.164;-3.124;2022-09-09T18:04:38;1.52;;;0.60;;
47009;SDS011;59230;54.164;-3.124;2022-09-09T18:07:04;1.65;;;0.50;;
47009;SDS011;59230;54.164;-3.124;2022-09-09T18:09:30;3.75;;;0.60;;